Time;durP1;ratioP1;P1;durP2;ratioP2;P2;SDS_P1;SDS_P2;PMS_P1;PMS_P2;Temp;Humidity;BMP_temperature;BMP_pressure;BME280_temperature;BME280_humidity;BME280_pressure;Samples;Min_cycle;Max_cycle;Signal;HPM_P1;HPM_P2
2021/03/21 05:02:27;;;;;;;6.10;4.30;;;3.70;92.70;;;;;;5134553;22;20562;-71
2021/03/21 05:04:58;;;;;;;4.33;3.97;;;3.80;93.20;;;;;;5036935;28;20452;-71
2021/03/21 05:07:31;;;;;;;4.40;4.00;;;3.80;92.80;;;;;;5036968;28;20528;-72
2021/03/21 05:10:03;;;;;;;4.47;4.03;;;3.90;93.30;;;;;;5074815;22;20996;-65
2021/03/21 05:12:37;;;;;;;4.53;4.23;;;4.00;94.00;;;;;;5055552;28;20970;-65
2021/03/21 05:15:12;;;;;;;3.80;3.50;;;4.00;94.50;;;;;;5055808;28;20442;-65
2021/03/21 05:17:49;;;;;;;5.30;4.07;;;4.10;94.30;;;;;;5055650;28;20473;-65
2021/03/21 05:20:21;;;;;;;4.20;3.57;;;4.10;94.60;;;;;;5055898;28;20545;-64
2021/03/21 05:22:53;;;;;;;5.70;4.00;;;4.10;94.20;;;;;;5055647;28;20513;-64
2021/03/21 05:25:23;;;;;;;4.27;3.47;;;4.20;94.80;;;;;;5055771;28;20442;-64
2021/03/21 05:27:59;;;;;;;4.90;3.50;;;4.20;94.60;;;;;;5056500;28;20448;-64
2021/03/21 05:30:30;;;;;;;3.63;3.33;;;4.20;94.40;;;;;;5055103;28;20482;-65
2021/03/21 05:32:57;;;;;;;4.03;3.70;;;4.20;95.60;;;;;;5055073;28;20451;-65
2021/03/21 05:35:26;;;;;;;3.60;3.30;;;4.20;95.10;;;;;;5055206;28;20935;-65
2021/03/21 05:38:02;;;;;;;4.60;3.90;;;4.20;94.50;;;;;;5055323;28;20886;-64
2021/03/21 05:41:09;;;;;;;5.03;4.57;;;4.20;94.80;;;;;;5055211;28;20478;-64
2021/03/21 05:44:13;;;;;;;4.23;3.70;;;4.30;95.60;;;;;;5044510;28;20447;-64
2021/03/21 05:47:10;;;;;;;3.80;3.40;;;4.30;95.30;;;;;;5055840;28;20842;-64
2021/03/21 05:49:54;;;;;;;3.80;3.50;;;4.30;95.50;;;;;;5055835;28;20471;-64
2021/03/21 05:52:51;;;;;;;4.13;3.83;;;4.30;95.90;;;;;;5054646;28;20435;-65
2021/03/21 05:55:52;;;;;;;4.40;3.80;;;4.30;95.80;;;;;;5028763;28;20443;-64
2021/03/21 05:58:46;;;;;;;4.07;3.73;;;4.40;95.70;;;;;;5003207;28;20485;-65
2021/03/21 06:01:41;;;;;;;4.00;3.70;;;4.30;95.70;;;;;;5055122;28;20446;-64
2021/03/21 06:04:46;;;;;;;4.03;3.73;;;4.20;95.80;;;;;;5055434;28;20435;-65
2021/03/21 06:07:52;;;;;;;3.80;3.50;;;4.20;96.30;;;;;;5056102;28;20832;-65
2021/03/21 06:10:49;;;;;;;3.73;3.40;;;4.20;96.90;;;;;;5054231;28;20486;-63
2021/03/21 06:13:32;;;;;;;7.87;3.60;;;4.10;96.80;;;;;;5054440;28;20435;-63
2021/03/21 06:16:20;;;;;;;4.23;3.83;;;4.20;96.80;;;;;;5054183;28;20869;-64
2021/03/21 06:19:20;;;;;;;4.13;3.73;;;4.20;96.60;;;;;;5054319;28;20479;-65
2021/03/21 06:22:05;;;;;;;5.53;3.70;;;4.20;96.60;;;;;;5054871;28;20473;-64
2021/03/21 06:25:04;;;;;;;8.17;4.00;;;4.10;96.80;;;;;;5054935;28;20461;-64
2021/03/21 06:28:05;;;;;;;4.53;3.63;;;4.20;97.30;;;;;;5055583;28;20459;-63
2021/03/21 06:31:05;;;;;;;6.03;4.37;;;4.30;97.00;;;;;;5056138;28;20528;-64
2021/03/21 06:33:44;;;;;;;4.50;4.10;;;4.40;98.10;;;;;;5055711;28;20928;-64
2021/03/21 06:36:15;;;;;;;7.90;3.73;;;4.40;99.50;;;;;;5055199;28;20485;-64
2021/03/21 06:39:02;;;;;;;3.47;3.17;;;4.50;99.90;;;;;;5054905;28;20478;-64
2021/03/21 06:41:44;;;;;;;4.10;3.50;;;4.50;99.80;;;;;;5053995;28;20446;-64
2021/03/21 06:44:34;;;;;;;4.50;3.60;;;4.60;99.10;;;;;;5053736;28;20932;-64
2021/03/21 06:47:28;;;;;;;3.40;3.00;;;4.60;98.60;;;;;;5051430;28;20458;-64
2021/03/21 06:50:25;;;;;;;3.53;3.23;;;4.70;99.00;;;;;;5053906;28;20471;-65
2021/03/21 06:53:00;;;;;;;4.30;3.43;;;4.70;98.60;;;;;;4997797;28;20500;-64
2021/03/21 06:55:33;;;;;;;3.50;3.30;;;4.70;98.00;;;;;;5054031;28;20446;-64
2021/03/21 06:58:55;;;;;;;3.73;3.43;;;4.60;98.30;;;;;;5053880;28;20463;-64
2021/03/21 07:01:28;;;;;;;3.97;2.90;;;4.60;99.10;;;;;;5054021;28;20514;-66
2021/03/21 07:04:31;;;;;;;3.80;3.50;;;4.70;99.50;;;;;;5053653;28;20443;-65
2021/03/21 07:07:49;;;;;;;3.53;3.23;;;4.70;99.90;;;;;;5053625;28;20446;-64
2021/03/21 07:10:55;;;;;;;3.30;3.10;;;4.70;99.90;;;;;;5053127;28;20482;-65
2021/03/21 07:14:06;;;;;;;3.80;3.50;;;4.60;99.10;;;;;;5053455;28;20923;-65
2021/03/21 07:17:13;;;;;;;3.33;3.03;;;4.60;99.80;;;;;;5019008;28;20813;-64
2021/03/21 07:20:27;;;;;;;3.90;3.60;;;4.60;99.90;;;;;;5053415;28;20511;-64
2021/03/21 07:23:35;;;;;;;3.60;3.30;;;4.60;99.90;;;;;;5053239;28;20446;-65
2021/03/21 07:26:18;;;;;;;4.43;3.60;;;4.70;99.90;;;;;;5053651;28;20466;-64
2021/03/21 07:29:22;;;;;;;5.00;3.70;;;4.70;99.90;;;;;;5052848;28;20459;-64
2021/03/21 07:32:25;;;;;;;3.90;3.60;;;4.80;99.90;;;;;;5053286;28;20638;-64
2021/03/21 07:35:12;;;;;;;4.07;3.40;;;4.80;99.70;;;;;;5053474;28;20435;-64
2021/03/21 07:37:48;;;;;;;4.20;3.80;;;4.70;99.00;;;;;;5053278;28;20459;-64
2021/03/21 07:40:26;;;;;;;3.20;3.00;;;4.70;99.20;;;;;;5053290;28;20481;-64
2021/03/21 07:43:06;;;;;;;4.33;3.57;;;4.80;97.50;;;;;;5053255;28;20435;-64
2021/03/21 07:45:57;;;;;;;5.00;3.80;;;4.70;97.30;;;;;;5053183;28;20442;-64
2021/03/21 07:48:42;;;;;;;4.70;3.30;;;4.90;98.30;;;;;;5052737;28;20983;-64
2021/03/21 07:51:17;;;;;;;3.40;3.10;;;4.90;98.20;;;;;;5052860;28;20910;-66
2021/03/21 07:53:53;;;;;;;6.77;3.50;;;5.00;96.70;;;;;;5054718;28;20446;-64
2021/03/21 07:56:28;;;;;;;3.57;3.10;;;5.10;96.50;;;;;;5056934;28;20917;-66
2021/03/21 07:58:59;;;;;;;4.90;3.00;;;5.10;96.20;;;;;;5057078;28;20564;-65
2021/03/21 08:01:25;;;;;;;4.33;3.40;;;5.10;96.00;;;;;;5057455;28;20488;-66
2021/03/21 08:03:58;;;;;;;3.33;3.00;;;5.10;95.70;;;;;;5057247;28;20450;-65
2021/03/21 08:06:31;;;;;;;3.10;2.90;;;5.10;95.90;;;;;;5057228;28;20465;-65
2021/03/21 08:09:05;;;;;;;2.90;2.70;;;5.20;96.00;;;;;;5056564;28;20483;-64
2021/03/21 08:11:35;;;;;;;3.23;2.93;;;5.20;95.30;;;;;;5057223;28;20444;-65
2021/03/21 08:14:13;;;;;;;3.67;3.07;;;5.20;96.40;;;;;;5056829;28;20455;-65
2021/03/21 08:16:46;;;;;;;3.13;2.80;;;5.20;95.40;;;;;;5056866;28;20850;-66
2021/03/21 08:19:15;;;;;;;4.83;3.10;;;5.30;96.10;;;;;;5057006;28;20895;-66
2021/03/21 08:21:42;;;;;;;3.53;2.97;;;5.30;95.70;;;;;;5057343;28;20451;-65
2021/03/21 08:24:14;;;;;;;2.90;2.70;;;5.40;96.70;;;;;;5057105;28;20493;-65
2021/03/21 08:26:44;;;;;;;3.57;3.30;;;5.50;97.80;;;;;;5057021;28;20447;-65
2021/03/21 08:29:12;;;;;;;4.97;2.97;;;5.30;96.40;;;;;;5056574;28;20463;-65
2021/03/21 08:31:41;;;;;;;4.63;3.53;;;5.40;95.80;;;;;;5056871;28;20454;-65
2021/03/21 08:34:32;;;;;;;4.13;3.73;;;5.40;95.50;;;;;;5057020;28;20861;-66
2021/03/21 08:37:01;;;;;;;5.20;4.13;;;5.30;94.90;;;;;;5056867;28;20521;-66
2021/03/21 08:39:42;;;;;;;3.73;2.90;;;5.30;94.80;;;;;;5056486;28;20479;-66
2021/03/21 08:42:28;;;;;;;3.50;3.20;;;5.30;94.90;;;;;;5056778;28;20446;-65
2021/03/21 08:45:07;;;;;;;4.90;3.37;;;5.20;95.20;;;;;;5057249;28;20440;-66
2021/03/21 08:47:34;;;;;;;4.70;4.17;;;5.30;94.20;;;;;;5056529;28;20431;-65
2021/03/21 08:50:03;;;;;;;5.53;3.93;;;5.30;94.00;;;;;;5055945;28;20474;-65
2021/03/21 08:52:33;;;;;;;3.53;3.23;;;5.40;94.20;;;;;;5056318;28;20455;-65
2021/03/21 08:55:01;;;;;;;4.33;3.53;;;5.50;94.10;;;;;;5056178;28;20525;-65
2021/03/21 08:57:33;;;;;;;3.90;3.50;;;5.60;94.20;;;;;;5056448;28;20556;-65
2021/03/21 09:00:29;;;;;;;6.33;3.60;;;5.60;94.30;;;;;;5056077;28;20984;-66
2021/03/21 09:02:55;;;;;;;4.27;3.87;;;5.50;94.60;;;;;;5056613;28;20782;-65
2021/03/21 09:05:23;;;;;;;4.33;3.93;;;5.50;93.90;;;;;;5055766;28;20451;-66
2021/03/21 09:08:06;;;;;;;4.13;3.77;;;5.50;94.40;;;;;;5055854;28;20945;-66
2021/03/21 09:10:35;;;;;;;5.03;4.53;;;5.50;95.30;;;;;;5055755;28;20854;-66
2021/03/21 09:13:23;;;;;;;5.83;3.97;;;5.60;94.90;;;;;;5055746;28;20799;-66
2021/03/21 09:16:08;;;;;;;5.23;3.93;;;5.70;95.90;;;;;;5051554;28;20455;-66
2021/03/21 09:18:37;;;;;;;4.93;4.40;;;5.80;95.50;;;;;;5055322;28;20479;-66
2021/03/21 09:21:15;;;;;;;4.90;3.67;;;5.90;95.70;;;;;;5055735;28;20455;-65
2021/03/21 09:23:45;;;;;;;4.30;3.90;;;6.00;96.20;;;;;;5055706;28;20526;-64
2021/03/21 09:26:35;;;;;;;4.63;4.23;;;6.10;96.00;;;;;;5055275;28;20971;-65
2021/03/21 09:29:11;;;;;;;4.53;4.13;;;6.20;96.80;;;;;;5055725;28;20562;-65
2021/03/21 09:31:38;;;;;;;5.23;4.73;;;6.30;97.00;;;;;;5055698;28;20431;-65
2021/03/21 09:34:09;;;;;;;5.87;4.50;;;6.40;96.70;;;;;;5055683;28;20466;-66
2021/03/21 09:36:42;;;;;;;5.10;4.57;;;6.40;96.00;;;;;;5055474;28;20809;-65
2021/03/21 09:39:15;;;;;;;6.90;6.20;;;6.50;96.50;;;;;;5055621;28;20482;-66
2021/03/21 09:41:42;;;;;;;5.90;5.20;;;6.50;96.40;;;;;;5055462;28;20439;-66
2021/03/21 09:44:21;;;;;;;7.63;5.60;;;6.60;95.90;;;;;;5055449;28;20451;-66
2021/03/21 09:46:50;;;;;;;7.40;5.80;;;6.60;96.60;;;;;;5055361;28;20435;-66
2021/03/21 09:49:24;;;;;;;5.60;5.10;;;6.70;96.10;;;;;;5055365;28;20579;-65
2021/03/21 09:51:52;;;;;;;6.47;5.67;;;6.70;95.40;;;;;;5055279;28;20489;-66
2021/03/21 09:54:39;;;;;;;5.97;5.37;;;6.80;95.10;;;;;;5054934;28;20455;-66
2021/03/21 09:57:37;;;;;;;6.20;5.50;;;6.90;94.00;;;;;;5055145;28;20478;-66
2021/03/21 10:00:09;;;;;;;7.00;5.27;;;7.00;95.60;;;;;;5049333;28;20479;-66
2021/03/21 10:02:43;;;;;;;6.10;5.20;;;6.90;93.70;;;;;;5054885;28;20935;-65
2021/03/21 10:05:18;;;;;;;5.77;5.00;;;6.80;93.10;;;;;;5055174;28;20442;-66
2021/03/21 10:07:49;;;;;;;5.60;5.10;;;6.80;94.10;;;;;;5055043;28;20901;-67
2021/03/21 10:10:22;;;;;;;11.00;5.97;;;6.90;94.40;;;;;;5054718;28;20853;-65
2021/03/21 10:12:48;;;;;;;6.77;5.90;;;6.90;93.80;;;;;;5054841;28;20462;-66
2021/03/21 10:15:17;;;;;;;6.10;5.47;;;7.00;93.80;;;;;;5054418;28;20454;-66
2021/03/21 10:17:46;;;;;;;6.43;5.83;;;7.00;94.10;;;;;;5053599;28;20883;-67
2021/03/21 10:20:15;;;;;;;12.20;5.77;;;7.10;95.70;;;;;;5054656;28;20470;-66
2021/03/21 10:23:04;;;;;;;7.70;5.30;;;7.20;95.20;;;;;;5054625;28;20451;-67
2021/03/21 10:26:03;;;;;;;5.53;5.10;;;7.40;94.80;;;;;;5039979;28;20447;-67
2021/03/21 10:28:43;;;;;;;5.97;5.37;;;7.40;95.40;;;;;;5054945;28;20431;-68
2021/03/21 10:31:38;;;;;;;7.30;4.80;;;7.40;95.00;;;;;;5055177;28;20442;-67
2021/03/21 10:34:33;;;;;;;5.07;4.57;;;7.40;97.20;;;;;;5055118;28;20435;-68
2021/03/21 10:37:00;;;;;;;10.53;5.80;;;7.40;98.30;;;;;;5055071;28;20455;-67
2021/03/21 10:39:59;;;;;;;5.90;5.40;;;7.20;98.60;;;;;;5055037;28;20505;-68
2021/03/21 10:42:47;;;;;;;6.70;6.10;;;7.20;99.90;;;;;;5050993;28;20451;-68
2021/03/21 10:45:17;;;;;;;9.90;6.00;;;7.40;99.90;;;;;;5054697;28;20906;-70
2021/03/21 10:47:49;;;;;;;6.37;5.77;;;7.60;99.90;;;;;;5055199;28;20439;-68
2021/03/21 10:50:45;;;;;;;6.20;5.70;;;7.60;99.90;;;;;;5054682;28;20467;-67
2021/03/21 10:53:19;;;;;;;6.03;5.43;;;7.60;99.90;;;;;;5048551;28;20458;-68
2021/03/21 10:56:13;;;;;;;6.40;5.80;;;7.40;99.90;;;;;;5054360;28;20912;-68
2021/03/21 10:59:10;;;;;;;8.40;7.20;;;7.30;99.90;;;;;;5054504;28;20510;-69
2021/03/21 11:01:38;;;;;;;7.87;6.43;;;7.30;99.90;;;;;;5049921;28;20443;-67
2021/03/21 11:04:23;;;;;;;7.97;6.50;;;7.10;99.90;;;;;;5054021;28;20976;-68
2021/03/21 11:07:11;;;;;;;7.13;6.43;;;7.00;99.90;;;;;;5054313;28;20448;-69
2021/03/21 11:09:50;;;;;;;7.70;6.90;;;6.90;99.90;;;;;;5054838;28;20473;-67
2021/03/21 11:12:16;;;;;;;7.00;6.30;;;6.90;99.90;;;;;;5054410;28;20465;-66
2021/03/21 11:14:43;;;;;;;7.83;6.00;;;7.10;99.90;;;;;;5054415;28;20447;-66
2021/03/21 11:17:18;;;;;;;6.50;5.90;;;7.30;99.90;;;;;;5054489;28;20479;-66
2021/03/21 11:19:47;;;;;;;7.23;5.77;;;7.70;99.90;;;;;;5054950;28;20510;-66
2021/03/21 11:22:23;;;;;;;7.43;6.63;;;7.70;99.90;;;;;;5054138;28;20811;-69
2021/03/21 11:24:49;;;;;;;6.63;5.93;;;7.80;99.90;;;;;;5054383;28;20435;-66
2021/03/21 11:27:26;;;;;;;6.83;6.23;;;7.70;99.90;;;;;;5054821;28;20454;-67
2021/03/21 11:29:53;;;;;;;6.73;6.13;;;7.60;99.90;;;;;;5053909;28;20471;-67
2021/03/21 11:32:23;;;;;;;7.47;6.87;;;7.70;99.90;;;;;;5054053;28;20439;-66
2021/03/21 11:34:59;;;;;;;7.40;6.70;;;7.70;99.90;;;;;;5054096;28;20462;-67
2021/03/21 11:37:31;;;;;;;7.10;6.00;;;7.70;99.90;;;;;;5054044;28;20458;-65
2021/03/21 11:40:00;;;;;;;8.07;6.90;;;7.60;99.90;;;;;;5054691;28;20471;-65
2021/03/21 11:42:31;;;;;;;6.00;5.50;;;7.80;99.90;;;;;;5054768;28;20450;-65
2021/03/21 11:45:24;;;;;;;5.93;5.33;;;7.80;99.90;;;;;;5054887;28;20790;-66
2021/03/21 11:47:53;;;;;;;5.87;5.33;;;8.00;99.90;;;;;;5054175;28;20467;-66
2021/03/21 11:50:23;;;;;;;6.33;5.73;;;8.10;99.90;;;;;;5053828;28;20478;-66
2021/03/21 11:52:51;;;;;;;5.90;5.40;;;8.10;99.90;;;;;;5054009;28;20815;-67
2021/03/21 11:55:19;;;;;;;5.90;5.30;;;7.90;99.90;;;;;;5054306;28;20455;-66
2021/03/21 11:58:04;;;;;;;6.30;5.00;;;7.50;99.90;;;;;;5053813;28;20566;-65
2021/03/21 12:00:33;;;;;;;5.90;5.40;;;7.30;99.90;;;;;;5053330;28;20477;-66
2021/03/21 12:03:04;;;;;;;4.80;4.40;;;7.30;99.90;;;;;;5053498;28;20455;-65
2021/03/21 12:05:32;;;;;;;5.33;4.83;;;7.30;99.90;;;;;;5053733;28;20438;-67
2021/03/21 12:08:18;;;;;;;5.30;4.80;;;7.30;99.90;;;;;;5053838;28;20504;-66
2021/03/21 12:10:44;;;;;;;6.07;5.47;;;7.20;99.90;;;;;;5053936;28;20454;-66
2021/03/21 12:13:41;;;;;;;5.53;5.10;;;7.10;99.90;;;;;;5054570;28;20504;-66
2021/03/21 12:16:30;;;;;;;5.87;5.37;;;7.00;99.90;;;;;;4993079;28;20449;-66
2021/03/21 12:18:58;;;;;;;5.40;5.00;;;7.10;99.90;;;;;;5049150;28;20479;-66
2021/03/21 12:21:25;;;;;;;6.00;5.23;;;7.20;99.90;;;;;;5053105;28;20455;-66
2021/03/21 12:24:01;;;;;;;6.60;5.90;;;7.50;99.90;;;;;;5053510;28;20461;-66
2021/03/21 12:26:50;;;;;;;6.67;4.90;;;7.60;99.90;;;;;;5052877;28;20905;-65
2021/03/21 12:29:39;;;;;;;5.10;4.70;;;7.70;99.90;;;;;;5052735;28;21007;-65
2021/03/21 12:32:42;;;;;;;5.80;5.30;;;7.80;99.90;;;;;;5052932;28;20432;-66
2021/03/21 12:35:33;;;;;;;6.10;5.30;;;8.00;99.90;;;;;;5052806;28;20961;-66
2021/03/21 12:38:02;;;;;;;5.13;4.70;;;8.20;99.90;;;;;;5052633;28;20521;-66
2021/03/21 12:40:36;;;;;;;5.80;5.37;;;8.20;99.90;;;;;;5054037;28;20645;-66
2021/03/21 12:43:18;;;;;;;6.43;5.83;;;8.10;99.90;;;;;;5056194;28;20445;-66
2021/03/21 12:46:05;;;;;;;8.10;6.87;;;8.10;99.90;;;;;;5056364;28;20809;-66
2021/03/21 12:48:32;;;;;;;7.20;6.60;;;8.20;99.90;;;;;;5058184;28;20463;-66
2021/03/21 12:51:00;;;;;;;7.20;6.50;;;8.40;99.90;;;;;;5062044;28;20454;-66
2021/03/21 12:53:29;;;;;;;8.17;7.00;;;8.50;99.90;;;;;;5062616;28;20447;-66
2021/03/21 12:55:59;;;;;;;7.37;6.73;;;8.70;99.90;;;;;;5057593;28;20925;-66
2021/03/21 12:58:26;;;;;;;7.00;6.30;;;8.70;99.90;;;;;;5056457;28;20483;-66
2021/03/21 13:00:53;;;;;;;8.30;7.50;;;8.80;99.90;;;;;;5057571;28;20466;-66
2021/03/21 13:03:24;;;;;;;8.60;7.70;;;8.90;99.90;;;;;;5056214;28;20846;-66
2021/03/21 13:05:50;;;;;;;7.97;7.30;;;8.90;99.90;;;;;;5056315;28;20435;-66
2021/03/21 13:08:17;;;;;;;9.43;7.63;;;8.80;99.90;;;;;;5055780;28;20447;-65
2021/03/21 13:10:44;;;;;;;7.90;6.73;;;8.60;99.90;;;;;;5055700;28;20469;-65
2021/03/21 13:13:11;;;;;;;8.67;7.80;;;8.50;99.90;;;;;;5055481;28;20455;-67
2021/03/21 13:15:38;;;;;;;9.70;8.10;;;8.60;99.90;;;;;;5055697;28;20462;-66
2021/03/21 13:18:04;;;;;;;7.40;6.70;;;8.20;99.90;;;;;;5055669;28;20879;-66
2021/03/21 13:20:31;;;;;;;8.10;7.40;;;8.10;99.90;;;;;;5055705;28;20508;-65
2021/03/21 13:22:58;;;;;;;7.40;6.70;;;8.00;99.90;;;;;;5055443;28;20980;-66
2021/03/21 13:25:27;;;;;;;8.03;7.27;;;8.00;99.90;;;;;;5055715;28;20462;-65
2021/03/21 13:27:56;;;;;;;8.07;7.37;;;8.10;99.90;;;;;;5055678;28;20501;-66
2021/03/21 13:30:26;;;;;;;8.57;7.77;;;8.20;99.90;;;;;;5055442;28;20471;-65
2021/03/21 13:32:53;;;;;;;9.23;8.27;;;8.10;99.90;;;;;;5055629;28;20467;-65
2021/03/21 13:35:20;;;;;;;7.50;6.80;;;8.00;99.90;;;;;;5055585;28;20451;-65
2021/03/21 13:37:46;;;;;;;11.33;7.30;;;8.10;99.90;;;;;;5055445;28;20466;-66
2021/03/21 13:40:18;;;;;;;7.77;7.07;;;8.20;99.90;;;;;;5055585;28;20482;-66
2021/03/21 13:42:44;;;;;;;7.80;7.10;;;8.20;99.90;;;;;;5055586;28;20451;-65
2021/03/21 13:45:13;;;;;;;7.67;6.97;;;8.10;99.90;;;;;;5055360;28;20451;-65
2021/03/21 13:47:39;;;;;;;8.10;7.40;;;8.10;99.90;;;;;;5055692;28;20451;-65
2021/03/21 13:50:07;;;;;;;8.10;7.40;;;8.10;99.90;;;;;;5055823;28;20474;-66
2021/03/21 13:52:34;;;;;;;9.20;8.30;;;7.90;99.90;;;;;;5055632;28;20452;-66
2021/03/21 13:55:00;;;;;;;8.80;8.00;;;7.80;99.90;;;;;;5055779;28;20505;-66
2021/03/21 13:57:26;;;;;;;7.53;6.93;;;7.70;99.90;;;;;;5055611;28;20454;-66
2021/03/21 13:59:52;;;;;;;8.73;7.90;;;7.70;99.90;;;;;;5055196;28;20490;-66
2021/03/21 14:02:19;;;;;;;7.93;7.07;;;7.70;99.90;;;;;;5054733;28;20462;-66
2021/03/21 14:04:45;;;;;;;9.67;8.07;;;7.70;99.90;;;;;;5054963;28;20462;-65
2021/03/21 14:07:12;;;;;;;13.00;10.43;;;7.70;99.90;;;;;;5054936;28;20458;-65
2021/03/21 14:09:38;;;;;;;11.70;8.63;;;7.60;99.90;;;;;;5054254;28;20475;-65
2021/03/21 14:12:05;;;;;;;8.73;7.93;;;7.60;99.90;;;;;;5054911;28;20455;-65
2021/03/21 14:14:31;;;;;;;13.23;10.00;;;7.70;99.90;;;;;;5054563;28;20930;-66
2021/03/21 14:16:57;;;;;;;8.60;7.77;;;7.80;99.90;;;;;;5054695;28;20485;-65
2021/03/21 14:19:25;;;;;;;8.83;8.13;;;7.70;99.90;;;;;;5054296;28;20956;-65
2021/03/21 14:21:51;;;;;;;8.77;7.97;;;7.70;99.90;;;;;;5054680;28;20451;-66
2021/03/21 14:24:17;;;;;;;9.07;8.17;;;7.60;99.90;;;;;;5054722;28;20451;-66
2021/03/21 14:26:43;;;;;;;8.90;8.00;;;7.70;99.90;;;;;;5054615;28;20458;-66
2021/03/21 14:29:09;;;;;;;8.67;7.87;;;7.70;99.90;;;;;;5054504;28;20467;-66
2021/03/21 14:31:36;;;;;;;11.03;8.60;;;7.90;99.90;;;;;;5054351;28;20483;-66
2021/03/21 14:34:02;;;;;;;7.97;7.17;;;8.00;99.90;;;;;;5054240;28;20949;-65
2021/03/21 14:36:30;;;;;;;8.57;7.87;;;8.00;99.90;;;;;;5054235;28;20461;-65
2021/03/21 14:38:56;;;;;;;8.53;7.70;;;8.00;99.90;;;;;;5054483;28;20479;-65
2021/03/21 14:41:22;;;;;;;9.30;8.40;;;8.00;99.90;;;;;;5054162;28;20949;-65
2021/03/21 14:43:48;;;;;;;8.43;7.53;;;8.20;99.90;;;;;;5054415;28;20455;-68
2021/03/21 14:46:14;;;;;;;9.40;8.13;;;8.30;99.90;;;;;;5054305;28;20451;-68
2021/03/21 14:48:41;;;;;;;8.40;7.60;;;8.50;99.90;;;;;;5054220;28;20468;-68
2021/03/21 14:51:07;;;;;;;10.80;7.10;;;8.60;99.90;;;;;;5054264;28;20467;-68
2021/03/21 14:53:34;;;;;;;9.50;8.50;;;8.80;99.90;;;;;;5054902;28;20455;-68
2021/03/21 14:56:00;;;;;;;8.47;7.77;;;8.90;99.90;;;;;;5054221;28;20949;-68
2021/03/21 14:58:28;;;;;;;9.03;8.13;;;9.00;99.90;;;;;;5054443;28;20471;-67
2021/03/21 15:00:56;;;;;;;9.03;8.20;;;9.10;99.90;;;;;;5056095;28;20455;-67
2021/03/21 15:03:23;;;;;;;9.80;8.80;;;9.20;99.90;;;;;;5054948;28;20454;-67
2021/03/21 15:05:51;;;;;;;8.70;8.00;;;9.40;99.90;;;;;;5055486;28;20481;-68
2021/03/21 15:08:19;;;;;;;9.70;8.80;;;9.30;99.90;;;;;;5054968;28;20589;-68
2021/03/21 15:10:47;;;;;;;8.93;8.23;;;9.30;99.90;;;;;;5054138;28;20436;-68
2021/03/21 15:13:13;;;;;;;9.73;8.73;;;9.30;99.90;;;;;;5054062;28;20451;-67
2021/03/21 15:15:42;;;;;;;9.20;8.30;;;9.30;99.90;;;;;;5053861;28;20458;-68
2021/03/21 15:18:09;;;;;;;9.80;8.80;;;9.40;99.90;;;;;;5053940;28;20486;-68
2021/03/21 15:20:37;;;;;;;9.40;8.60;;;9.30;99.90;;;;;;5053790;28;20482;-67
2021/03/21 15:23:05;;;;;;;9.73;8.90;;;9.30;99.90;;;;;;5053703;28;20451;-68
2021/03/21 15:25:35;;;;;;;9.40;8.60;;;9.30;99.90;;;;;;5053719;28;20459;-68
2021/03/21 15:28:04;;;;;;;9.73;8.83;;;9.20;99.90;;;;;;5053898;28;20462;-67
2021/03/21 15:30:31;;;;;;;9.53;8.63;;;9.20;99.90;;;;;;5053690;28;20475;-68
2021/03/21 15:32:59;;;;;;;10.30;9.33;;;9.20;99.90;;;;;;5054219;28;20447;-68
2021/03/21 15:35:27;;;;;;;10.07;9.17;;;9.20;99.90;;;;;;5054068;28;20462;-68
2021/03/21 15:37:53;;;;;;;10.93;9.83;;;9.30;99.90;;;;;;5054045;28;20517;-68
2021/03/21 15:40:28;;;;;;;9.80;8.90;;;9.20;99.90;;;;;;5054105;28;20486;-68
2021/03/21 15:42:54;;;;;;;10.17;9.17;;;9.20;99.90;;;;;;5054069;28;20445;-67
2021/03/21 15:45:23;;;;;;;10.50;9.47;;;9.10;99.90;;;;;;5054077;28;20506;-68
2021/03/21 15:47:49;;;;;;;10.60;9.00;;;9.10;99.90;;;;;;5054267;28;20517;-67
2021/03/21 15:50:17;;;;;;;9.40;8.50;;;9.00;99.90;;;;;;5054312;28;20466;-67
2021/03/21 15:52:43;;;;;;;9.60;8.70;;;9.00;99.90;;;;;;5053811;28;20455;-68
2021/03/21 15:55:10;;;;;;;10.80;8.20;;;8.90;99.90;;;;;;5053750;28;20855;-67
2021/03/21 15:57:37;;;;;;;9.17;8.27;;;8.90;99.90;;;;;;5053692;28;20455;-67
2021/03/21 16:00:04;;;;;;;8.67;7.87;;;8.90;99.90;;;;;;5054245;28;20490;-68
2021/03/21 16:02:31;;;;;;;8.50;7.80;;;8.80;99.90;;;;;;5053387;28;20490;-67
2021/03/21 16:04:57;;;;;;;9.33;8.43;;;8.50;99.90;;;;;;5053049;28;20831;-67
2021/03/21 16:07:24;;;;;;;9.67;8.77;;;8.40;99.90;;;;;;5053212;28;20462;-68
2021/03/21 16:09:50;;;;;;;9.70;8.77;;;8.40;99.90;;;;;;5052803;28;20478;-67
2021/03/21 16:12:17;;;;;;;9.23;8.23;;;8.40;99.90;;;;;;5053968;28;20462;-67
2021/03/21 16:14:43;;;;;;;9.60;8.70;;;8.40;99.90;;;;;;5053261;28;20457;-67
2021/03/21 16:17:09;;;;;;;8.83;8.03;;;8.40;99.90;;;;;;5057260;28;20458;-67
2021/03/21 16:19:37;;;;;;;10.43;9.43;;;8.20;99.90;;;;;;5056659;28;21041;-67
2021/03/21 16:22:04;;;;;;;9.23;8.33;;;8.30;99.90;;;;;;5057090;28;20863;-68
2021/03/21 16:24:30;;;;;;;8.27;7.50;;;8.20;99.90;;;;;;5058065;28;20455;-67
2021/03/21 16:26:56;;;;;;;9.87;8.93;;;8.20;99.90;;;;;;5059722;28;20455;-67
2021/03/21 16:29:23;;;;;;;8.83;8.00;;;8.10;99.90;;;;;;5060139;28;20471;-67
2021/03/21 16:31:49;;;;;;;9.20;8.40;;;8.20;99.90;;;;;;5059812;28;20458;-68
2021/03/21 16:34:15;;;;;;;9.07;8.27;;;8.20;99.90;;;;;;5057224;28;20496;-67
2021/03/21 16:36:42;;;;;;;9.70;8.80;;;8.10;99.90;;;;;;5057220;28;20548;-67
2021/03/21 16:39:09;;;;;;;10.43;9.43;;;8.20;99.90;;;;;;5056606;28;20479;-67
2021/03/21 16:41:35;;;;;;;10.50;9.57;;;8.20;99.90;;;;;;5057895;28;20462;-67
2021/03/21 16:44:01;;;;;;;10.43;9.43;;;8.10;99.90;;;;;;5056830;28;20461;-66
2021/03/21 16:46:28;;;;;;;10.60;9.50;;;8.00;99.90;;;;;;5057752;28;20453;-66
2021/03/21 16:48:57;;;;;;;11.93;10.60;;;8.00;99.90;;;;;;5064408;28;20463;-65
2021/03/21 16:51:24;;;;;;;10.40;9.47;;;8.00;99.90;;;;;;5066496;28;20458;-65
2021/03/21 16:53:51;;;;;;;11.30;10.20;;;7.90;99.90;;;;;;5064008;28;20461;-65
2021/03/21 16:56:17;;;;;;;14.00;12.13;;;7.90;99.90;;;;;;5056805;28;20455;-66
2021/03/21 16:58:44;;;;;;;11.47;10.47;;;7.80;99.90;;;;;;5056778;28;20482;-66
2021/03/21 17:01:11;;;;;;;13.37;12.17;;;7.80;99.90;;;;;;5059697;28;20462;-66
2021/03/21 17:03:37;;;;;;;13.43;11.13;;;7.70;99.90;;;;;;5064332;28;20463;-66
2021/03/21 17:06:04;;;;;;;11.10;9.90;;;7.60;99.90;;;;;;5065185;28;20451;-67
2021/03/21 17:08:30;;;;;;;13.53;11.17;;;7.60;99.90;;;;;;5064805;28;20452;-66
2021/03/21 17:10:58;;;;;;;12.27;11.10;;;7.60;99.90;;;;;;5065367;28;20497;-67
2021/03/21 17:13:24;;;;;;;11.83;10.73;;;7.60;99.90;;;;;;5056373;28;20509;-67
2021/03/21 17:15:52;;;;;;;11.70;10.50;;;7.60;99.90;;;;;;5056257;28;20508;-72
2021/03/21 17:18:21;;;;;;;12.00;10.43;;;7.60;99.90;;;;;;5055925;28;20576;-67
2021/03/21 17:20:48;;;;;;;12.40;11.20;;;7.60;99.90;;;;;;5056039;28;20825;-68
2021/03/21 17:23:15;;;;;;;11.83;10.63;;;7.50;99.90;;;;;;5055865;28;20446;-68
2021/03/21 17:25:44;;;;;;;11.90;10.60;;;7.50;99.90;;;;;;5056301;28;20457;-68
2021/03/21 17:28:12;;;;;;;15.47;11.60;;;7.40;99.90;;;;;;5056528;28;20608;-69
2021/03/21 17:30:40;;;;;;;12.70;11.50;;;7.40;99.90;;;;;;5055833;28;20451;-68
2021/03/21 17:33:07;;;;;;;13.13;11.93;;;7.30;99.90;;;;;;5056217;28;20451;-68
2021/03/21 17:35:34;;;;;;;11.93;10.63;;;7.40;99.90;;;;;;5055729;28;20458;-67
2021/03/21 17:38:01;;;;;;;13.43;12.07;;;7.30;99.90;;;;;;5055786;28;20813;-67
2021/03/21 17:40:30;;;;;;;18.30;10.77;;;7.30;99.90;;;;;;5055457;28;20486;-67
2021/03/21 17:42:57;;;;;;;12.50;10.57;;;7.30;99.90;;;;;;5055722;28;20460;-67
2021/03/21 17:45:30;;;;;;;13.50;12.10;;;7.20;99.90;;;;;;5055526;28;20470;-68
2021/03/21 17:47:57;;;;;;;11.63;10.47;;;7.20;99.90;;;;;;5055777;28;20436;-68
2021/03/21 17:50:25;;;;;;;13.00;11.60;;;7.20;99.90;;;;;;5055434;28;20495;-68
2021/03/21 17:52:51;;;;;;;13.67;11.03;;;7.10;99.90;;;;;;5055543;28;20450;-68
2021/03/21 17:55:19;;;;;;;12.73;11.43;;;7.00;99.90;;;;;;5055114;28;20501;-67
2021/03/21 17:57:45;;;;;;;14.70;11.53;;;7.00;99.90;;;;;;5055100;28;20941;-67
2021/03/21 18:00:13;;;;;;;13.10;11.83;;;6.90;99.90;;;;;;5055218;28;20936;-67
2021/03/21 18:02:40;;;;;;;14.17;12.67;;;6.90;99.90;;;;;;5055270;28;20452;-67
2021/03/21 18:05:08;;;;;;;12.00;10.70;;;6.80;99.90;;;;;;5055201;28;20458;-68
2021/03/21 18:07:34;;;;;;;18.23;13.17;;;6.80;99.90;;;;;;5054911;28;20462;-68
2021/03/21 18:10:00;;;;;;;17.57;12.07;;;6.80;99.90;;;;;;5054922;28;20479;-68
2021/03/21 18:12:27;;;;;;;13.20;11.90;;;6.70;99.90;;;;;;5055624;28;20793;-68
2021/03/21 18:14:53;;;;;;;13.80;12.40;;;6.70;99.90;;;;;;5055872;28;20446;-68
2021/03/21 18:17:19;;;;;;;16.00;13.13;;;6.70;99.90;;;;;;5055359;28;20451;-69
2021/03/21 18:19:46;;;;;;;14.37;12.70;;;6.70;99.90;;;;;;5055667;28;20483;-63
2021/03/21 18:22:12;;;;;;;16.70;13.17;;;6.70;99.90;;;;;;5055915;28;20454;-65
2021/03/21 18:24:38;;;;;;;13.70;12.30;;;6.80;99.90;;;;;;5055883;28;20505;-65
2021/03/21 18:27:05;;;;;;;14.07;12.13;;;6.80;99.90;;;;;;5055117;28;20945;-64
2021/03/21 18:29:32;;;;;;;15.00;11.70;;;6.80;99.90;;;;;;5056108;28;20829;-63
2021/03/21 18:31:58;;;;;;;19.07;11.70;;;6.80;99.90;;;;;;5055179;28;20937;-64